createdAt,value
2018-09-15T00:03:03.553Z,18.5
2018-09-15T00:08:01.304Z,19.2
2018-09-15T00:12:59.325Z,18.5
2018-09-15T00:17:56.863Z,18.4
2018-09-15T00:22:54.451Z,18.4
2018-09-15T00:27:51.824Z,18.4
2018-09-15T00:32:49.549Z,18.7
2018-09-15T00:37:47.224Z,18.3
2018-09-15T00:42:44.991Z,18.3
2018-09-15T00:47:42.815Z,18.3
2018-09-15T00:52:40.516Z,18.2
2018-09-15T00:57:38.251Z,18.2
2018-09-15T01:02:36.282Z,18.6
2018-09-15T01:07:34.003Z,18.3
2018-09-15T01:12:32.186Z,18.1
2018-09-15T01:17:30.071Z,18.1
2018-09-15T01:22:27.745Z,18
2018-09-15T01:27:25.420Z,18
2018-09-15T01:32:23.674Z,18.4
2018-09-15T01:37:21.094Z,17.9
2018-09-15T01:42:18.773Z,17.9
2018-09-15T01:47:16.298Z,17.9
2018-09-15T01:52:14.381Z,18.5
2018-09-15T01:57:12.109Z,17.8
2018-09-15T02:02:09.386Z,18.5
2018-09-15T02:07:06.726Z,17.7
2018-09-15T02:12:04.506Z,17.7
2018-09-15T02:17:02.206Z,17.7
2018-09-15T02:21:59.856Z,17.7
2018-09-15T02:26:57.441Z,17.6
2018-09-15T02:31:55.425Z,17.6
2018-09-15T02:36:53.123Z,17.5
2018-09-15T02:41:50.975Z,17.5
2018-09-15T02:46:48.616Z,17.7
2018-09-15T02:51:46.490Z,17.5
2018-09-15T02:56:44.001Z,18.1
2018-09-15T03:01:42.007Z,17.4
2018-09-15T03:06:39.623Z,18.1
2018-09-15T03:11:37.479Z,17.4
2018-09-15T03:16:35.214Z,18
2018-09-15T03:21:32.861Z,18
2018-09-15T03:26:30.326Z,17.3
2018-09-15T03:31:27.940Z,17.2
2018-09-15T03:36:25.358Z,17.9
2018-09-15T03:41:23.125Z,17.8
2018-09-15T03:46:20.668Z,17.8
2018-09-15T03:51:18.229Z,17
2018-09-15T03:56:16.062Z,17.7
2018-09-15T04:01:15.199Z,17.6
2018-09-15T04:06:13.030Z,17.6
2018-09-15T04:11:10.694Z,16.8
2018-09-15T04:16:08.690Z,17.5
2018-09-15T04:21:06.572Z,17.5
2018-09-15T04:26:04.292Z,17.4
2018-09-15T04:31:01.964Z,17.4
2018-09-15T04:35:59.495Z,17.4
2018-09-15T04:40:57.221Z,17.4
2018-09-15T04:45:55.478Z,17.3
2018-09-15T04:50:52.984Z,17.3
2018-09-15T04:55:50.568Z,17.3
2018-09-15T05:00:48.206Z,17.3
2018-09-15T05:05:45.562Z,17.2
2018-09-15T05:10:42.823Z,17.1
2018-09-15T05:15:40.511Z,17.1
2018-09-15T05:20:38.045Z,17.1
2018-09-15T05:25:36.439Z,17.1
2018-09-15T05:30:33.743Z,17.1
2018-09-15T05:35:31.725Z,16
2018-09-15T05:40:29.214Z,16.4
2018-09-15T05:45:26.995Z,17.1
2018-09-15T05:50:24.799Z,16.9
2018-09-15T05:55:22.313Z,17.2
2018-09-15T06:00:20.461Z,17.3
2018-09-15T06:05:17.911Z,17.4
2018-09-15T06:10:15.333Z,17.5
2018-09-15T06:15:13.181Z,16.1
2018-09-15T06:20:10.871Z,17.5
2018-09-15T06:25:08.888Z,17.3
2018-09-15T06:30:06.807Z,17.6
2018-09-15T06:35:04.554Z,17.7
2018-09-15T06:40:02.109Z,17.6
2018-09-15T06:44:59.751Z,17.9
2018-09-15T06:49:57.682Z,17.9
2018-09-15T06:54:55.422Z,18
2018-09-15T06:59:53.354Z,18
2018-09-15T07:04:50.823Z,18.1
2018-09-15T07:09:48.512Z,18.2
2018-09-15T07:14:46.326Z,17.5
2018-09-15T07:19:43.984Z,18.3
2018-09-15T07:24:41.879Z,17.7
2018-09-15T07:29:39.845Z,18.4
2018-09-15T07:34:37.607Z,18.5
2018-09-15T07:39:35.615Z,18.6
2018-09-15T07:44:33.264Z,18.7
2018-09-15T07:49:30.810Z,18.8
2018-09-15T07:54:28.854Z,18.2
2018-09-15T07:59:26.956Z,19
2018-09-15T08:04:25.186Z,19
2018-09-15T08:09:23.418Z,19.2
2018-09-15T08:14:21.117Z,18.6
2018-09-15T08:19:18.851Z,18.7
2018-09-15T08:24:16.707Z,18.7
2018-09-15T08:29:14.984Z,19.1
2018-09-15T08:34:12.938Z,19.2
2018-09-15T08:39:10.749Z,19.4
2018-09-15T08:44:08.549Z,19.5
2018-09-15T08:49:06.573Z,19.7
2018-09-15T08:54:04.555Z,19.8
2018-09-15T08:59:02.903Z,20
2018-09-15T09:04:00.583Z,20.1
2018-09-15T09:08:59.024Z,18.6
2018-09-15T09:13:56.812Z,20.3
2018-09-15T09:18:55.093Z,21.1
2018-09-15T09:23:53.243Z,21.1
2018-09-15T09:28:51.086Z,20.6
2018-09-15T09:33:49.439Z,21.4
2018-09-15T09:38:47.416Z,20.9
2018-09-15T09:43:45.064Z,21.1
2018-09-15T09:48:43.607Z,21.9
2018-09-15T09:53:41.616Z,21.5
2018-09-15T09:58:39.822Z,21.8
2018-09-15T10:03:37.737Z,22.2
2018-09-15T10:08:35.447Z,22.4
2018-09-15T10:13:33.390Z,22.6
2018-09-15T10:18:31.267Z,22.9
2018-09-15T10:23:29.340Z,22.9
2018-09-15T10:28:27.219Z,23.7
2018-09-15T10:33:25.692Z,23.3
2018-09-15T10:38:23.418Z,24
2018-09-15T10:43:21.510Z,24
2018-09-15T10:48:19.717Z,24.3
2018-09-15T10:53:18.155Z,24.4
2018-09-15T10:58:16.558Z,23.9
2018-09-15T11:03:14.442Z,24.6
2018-09-15T11:08:12.550Z,23.1
2018-09-15T11:13:10.378Z,24.8
2018-09-15T11:18:08.157Z,25
2018-09-15T11:23:06.230Z,25.3
2018-09-15T11:28:04.308Z,25.6
2018-09-15T11:33:02.062Z,25.8
2018-09-15T11:37:59.952Z,25.5
2018-09-15T11:42:57.885Z,26.3
2018-09-15T11:47:55.901Z,26.2
2018-09-15T11:52:53.728Z,26.3
2018-09-15T11:57:52.349Z,25.9
2018-09-15T12:02:50.297Z,26.4
2018-09-15T12:07:48.181Z,26.3
2018-09-15T12:12:45.942Z,26.1
2018-09-15T12:17:43.965Z,26
2018-09-15T12:22:41.933Z,25.4
2018-09-15T12:27:40.674Z,26.2
2018-09-15T12:32:38.506Z,26.4
2018-09-15T12:37:36.758Z,25.7
2018-09-15T12:42:34.353Z,26.1
2018-09-15T12:47:32.063Z,26
2018-09-15T12:52:29.624Z,26
2018-09-15T12:57:27.931Z,26.1
2018-09-15T13:02:26.023Z,25.9
2018-09-15T13:07:23.995Z,26.1
2018-09-15T13:12:22.134Z,26.4
2018-09-15T13:17:20.434Z,26.6
2018-09-15T13:22:18.378Z,26.7
2018-09-15T13:27:16.302Z,26.8
2018-09-15T13:32:13.710Z,26.6
2018-09-15T13:37:11.630Z,25
2018-09-15T13:42:09.307Z,26.2
2018-09-15T13:47:06.872Z,26
2018-09-15T13:52:04.730Z,25.2
2018-09-15T13:57:02.762Z,25.7
2018-09-15T14:02:00.545Z,25.8
2018-09-15T14:06:58.651Z,25.1
2018-09-15T14:11:56.496Z,25.7
2018-09-15T14:16:54.106Z,25.6
2018-09-15T14:21:51.773Z,25.5
2018-09-15T14:26:49.398Z,25.4
2018-09-15T14:31:47.052Z,25.3
2018-09-15T14:36:44.911Z,25.2
2018-09-15T14:41:42.496Z,25.2
2018-09-15T14:46:40.398Z,25.2
2018-09-15T14:51:38.136Z,25.2
2018-09-15T14:56:36.102Z,25.2
2018-09-15T15:01:34.197Z,25.2
2018-09-15T15:06:32.003Z,25
2018-09-15T15:11:29.706Z,25.1
2018-09-15T15:16:28.447Z,23.3
2018-09-15T15:21:25.893Z,24.4
2018-09-15T15:26:23.593Z,25.1
2018-09-15T15:31:21.321Z,25
2018-09-15T15:36:19.071Z,25
2018-09-15T15:41:16.855Z,24.9
2018-09-15T15:46:14.697Z,24.2
2018-09-15T15:51:12.066Z,24.8
2018-09-15T15:56:10.030Z,24.7
2018-09-15T16:01:07.384Z,24.2
2018-09-15T16:06:04.692Z,24.6
2018-09-15T16:11:02.485Z,23.9
2018-09-15T16:15:59.152Z,24.6
2018-09-15T16:20:57.165Z,23.9
2018-09-15T16:25:54.850Z,24.5
2018-09-15T16:30:52.585Z,24.3
2018-09-15T16:35:49.764Z,24.2
2018-09-15T16:40:47.742Z,24.1
2018-09-15T16:45:45.679Z,23
2018-09-15T16:50:43.470Z,23.8
2018-09-15T16:55:41.419Z,23.7
2018-09-15T17:00:39.455Z,23.6
2018-09-15T17:05:37.033Z,23.6
2018-09-15T17:10:34.695Z,23.1
2018-09-15T17:15:32.738Z,23.4
2018-09-15T17:20:30.512Z,22.6
2018-09-15T17:25:27.820Z,23.2
2018-09-15T17:30:25.534Z,22.5
2018-09-15T17:35:23.497Z,22.5
2018-09-15T17:40:21.112Z,22.5
2018-09-15T17:45:18.971Z,22.4
2018-09-15T17:50:16.625Z,22.3
2018-09-15T17:55:14.360Z,23
2018-09-15T18:00:12.167Z,22.2
2018-09-15T18:05:10.613Z,22.2
2018-09-15T18:10:08.409Z,22.1
2018-09-15T18:15:06.164Z,22.1
2018-09-15T18:20:03.874Z,19.4
2018-09-15T18:25:01.097Z,22
2018-09-15T18:29:58.784Z,22
2018-09-15T18:34:56.598Z,21.9
2018-09-15T18:39:54.328Z,22.5
2018-09-15T18:44:51.916Z,21.8
2018-09-15T18:49:49.516Z,22.4
2018-09-15T18:54:47.307Z,21.7
2018-09-15T18:59:45.445Z,21.7
2018-09-15T19:04:43.111Z,21.6
2018-09-15T19:09:40.764Z,21.6
2018-09-15T19:14:39.321Z,22
2018-09-15T19:19:36.783Z,21.3
2018-09-15T19:24:34.349Z,21.4
2018-09-15T19:29:32.015Z,21.4
2018-09-15T19:34:29.652Z,22.1
2018-09-15T19:39:27.431Z,21.4
2018-09-15T19:44:25.277Z,22
2018-09-15T19:49:23.222Z,21.3
2018-09-15T19:54:21.088Z,21.9
2018-09-15T19:59:19.092Z,21
2018-09-15T20:04:16.859Z,21.1
2018-09-15T20:09:14.622Z,21.1
2018-09-15T20:14:12.455Z,21.8
2018-09-15T20:19:10.340Z,21
2018-09-15T20:24:08.372Z,21.7
2018-09-15T20:29:06.227Z,21.7
2018-09-15T20:34:04.177Z,21.6
2018-09-15T20:39:01.982Z,21.6
2018-09-15T20:43:59.680Z,20.8
2018-09-15T20:48:57.308Z,21.5
2018-09-15T20:53:54.707Z,20.8
2018-09-15T20:58:52.504Z,20.7
2018-09-15T21:03:50.876Z,20.8
2018-09-15T21:08:48.050Z,20.7
2018-09-15T21:13:45.718Z,20.7
2018-09-15T21:18:43.405Z,20.6
2018-09-15T21:23:41.999Z,20.4
2018-09-15T21:28:39.650Z,21.4
2018-09-15T21:33:37.399Z,20.7
2018-09-15T21:38:35.163Z,21.3
2018-09-15T21:43:32.050Z,21.3
2018-09-15T21:48:29.633Z,20.6
2018-09-15T21:53:27.374Z,20.5
2018-09-15T21:58:25.342Z,21.2
2018-09-15T22:03:23.355Z,20.5
2018-09-15T22:08:21.158Z,21.2
2018-09-15T22:13:19.100Z,20.2
2018-09-15T22:18:16.891Z,20.4
2018-09-15T22:23:14.571Z,20.4
2018-09-15T22:28:12.647Z,20.4
2018-09-15T22:33:10.525Z,21.1
2018-09-15T22:38:08.136Z,20.4
2018-09-15T22:43:05.642Z,20.3
2018-09-15T22:48:03.436Z,20.3
2018-09-15T22:53:01.138Z,20.2
2018-09-15T22:57:58.853Z,20.2
2018-09-15T23:02:56.835Z,20.1
2018-09-15T23:07:54.458Z,20.1
2018-09-15T23:12:52.362Z,19.9
2018-09-15T23:17:50.090Z,20
2018-09-15T23:22:47.924Z,20.1
2018-09-15T23:27:45.848Z,20
2018-09-15T23:32:43.183Z,20.7
2018-09-15T23:37:40.765Z,20
2018-09-15T23:42:38.498Z,20
2018-09-15T23:47:36.379Z,20
2018-09-15T23:52:34.400Z,20.7
2018-09-15T23:57:32.380Z,20.6
